Time;durP1;ratioP1;P1;durP2;ratioP2;P2;SDS_P1;SDS_P2;PMS_P1;PMS_P2;Temp;Humidity;BMP_temperature;BMP_pressure;BME280_temperature;BME280_humidity;BME280_pressure;Samples;Min_cycle;Max_cycle;Signal;HPM_P1;HPM_P2
2023/10/24 00:01:01;;;;;;;13.77;12.38;;;11.00;99.90;;;;;;5000530;28;20032;-93
2023/10/24 00:03:27;;;;;;;15.00;12.77;;;11.00;99.90;;;;;;5003946;28;20014;-92
2023/10/24 00:05:53;;;;;;;13.65;12.05;;;11.00;99.90;;;;;;5004988;28;20080;-92
2023/10/24 00:08:19;;;;;;;15.77;14.10;;;11.00;99.90;;;;;;5020486;28;20029;-92
2023/10/24 00:10:45;;;;;;;16.13;12.45;;;10.90;99.90;;;;;;5003154;28;20025;-93
2023/10/24 00:13:11;;;;;;;13.88;11.57;;;11.00;99.90;;;;;;5003127;28;20416;-94
2023/10/24 00:15:37;;;;;;;15.32;13.00;;;11.00;99.90;;;;;;5019448;28;20026;-94
2023/10/24 00:18:03;;;;;;;13.93;12.57;;;11.00;99.90;;;;;;4993041;28;20031;-94
2023/10/24 00:20:30;;;;;;;17.55;13.35;;;11.00;99.90;;;;;;4983069;28;20033;-93
2023/10/24 00:22:59;;;;;;;13.82;11.73;;;11.00;99.90;;;;;;4982965;28;20412;-92
2023/10/24 00:25:25;;;;;;;13.48;11.82;;;11.00;99.90;;;;;;5003737;28;20010;-94
2023/10/24 00:27:53;;;;;;;15.02;13.07;;;11.00;99.90;;;;;;5002680;28;20098;-93
2023/10/24 00:30:22;;;;;;;15.75;13.45;;;11.00;99.90;;;;;;5010389;28;20038;-91
2023/10/24 00:32:49;;;;;;;13.07;11.68;;;11.10;99.90;;;;;;5007505;28;20022;-93
2023/10/24 00:35:18;;;;;;;15.98;12.82;;;11.00;99.90;;;;;;5020927;28;20034;-93
2023/10/24 00:37:45;;;;;;;15.13;12.07;;;11.00;99.90;;;;;;5014183;28;20031;-94
2023/10/24 00:40:11;;;;;;;14.02;12.65;;;11.10;99.90;;;;;;4985507;28;20026;-94
2023/10/24 00:42:37;;;;;;;14.23;12.93;;;11.10;99.90;;;;;;5012049;28;20090;-92
2023/10/24 00:45:03;;;;;;;13.38;11.90;;;11.10;99.90;;;;;;5002362;28;20051;-92
2023/10/24 00:47:29;;;;;;;16.40;13.35;;;11.00;99.90;;;;;;5000607;28;20026;-93
2023/10/24 00:49:55;;;;;;;16.45;10.20;;;11.00;99.90;;;;;;5008644;28;20428;-94
2023/10/24 00:52:21;;;;;;;14.93;13.02;;;11.00;99.90;;;;;;5003629;28;20118;-93
2023/10/24 00:54:47;;;;;;;16.25;13.25;;;11.10;99.90;;;;;;5000890;28;20037;-92
2023/10/24 00:57:15;;;;;;;14.70;12.82;;;11.00;99.90;;;;;;4990190;28;20030;-94
2023/10/24 00:59:42;;;;;;;15.18;13.60;;;11.00;99.90;;;;;;4997302;28;20038;-93
2023/10/24 01:02:12;;;;;;;14.05;12.63;;;11.00;99.90;;;;;;5021453;28;20030;-93
2023/10/24 01:04:39;;;;;;;15.57;12.75;;;11.00;99.90;;;;;;5004583;28;20608;-93
2023/10/24 01:07:05;;;;;;;14.68;12.75;;;11.00;99.90;;;;;;5003823;28;20037;-94
2023/10/24 01:09:31;;;;;;;14.73;12.60;;;11.00;99.90;;;;;;5003805;28;20022;-92
2023/10/24 01:11:57;;;;;;;13.93;12.45;;;11.00;99.90;;;;;;5021440;28;20129;-92
2023/10/24 01:14:24;;;;;;;15.45;13.15;;;11.00;99.90;;;;;;5004375;28;20046;-92
2023/10/24 01:16:50;;;;;;;12.27;10.98;;;10.90;99.90;;;;;;5004982;28;20026;-93
2023/10/24 01:19:16;;;;;;;14.90;12.98;;;11.00;99.90;;;;;;5009158;28;20089;-93
2023/10/24 01:21:45;;;;;;;13.93;12.07;;;11.00;99.90;;;;;;4983542;28;20027;-93
2023/10/24 01:24:15;;;;;;;14.25;12.75;;;11.00;99.90;;;;;;4999589;28;20019;-91
2023/10/24 01:26:43;;;;;;;13.77;12.38;;;11.00;99.90;;;;;;5006925;28;20026;-92
2023/10/24 01:29:11;;;;;;;;;;;11.00;99.90;;;;;;5001578;28;20173;-94
2023/10/24 01:31:37;;;;;;;13.05;11.75;;;10.90;99.90;;;;;;4995843;28;19910;-93
2023/10/24 01:34:04;;;;;;;13.48;12.25;;;11.00;99.90;;;;;;5020076;28;20032;-93
2023/10/24 01:36:30;;;;;;;14.10;12.38;;;11.00;99.90;;;;;;5008280;28;20030;-94
2023/10/24 01:38:56;;;;;;;14.50;12.93;;;11.00;99.90;;;;;;5005963;28;20065;-92
2023/10/24 01:41:24;;;;;;;14.75;13.40;;;11.00;99.90;;;;;;5006705;28;20026;-94
2023/10/24 01:43:52;;;;;;;13.65;12.13;;;11.00;99.90;;;;;;5008987;28;20052;-93
2023/10/24 01:46:23;;;;;;;13.40;11.98;;;11.00;99.90;;;;;;5008152;28;20022;-93
2023/10/24 01:48:49;;;;;;;13.02;11.85;;;11.00;99.90;;;;;;5007050;28;20041;-92
2023/10/24 01:51:15;;;;;;;13.85;12.50;;;11.00;99.90;;;;;;5023833;28;20027;-93
2023/10/24 01:53:41;;;;;;;14.15;12.95;;;11.00;99.90;;;;;;5007650;28;20093;-93
2023/10/24 01:56:09;;;;;;;13.70;12.30;;;11.00;99.90;;;;;;5007056;28;20559;-96
2023/10/24 01:58:35;;;;;;;13.18;11.68;;;11.00;99.90;;;;;;5023614;28;20504;-92
2023/10/24 02:01:01;;;;;;;13.02;11.57;;;11.00;99.90;;;;;;5006960;28;20129;-92
2023/10/24 02:03:27;;;;;;;15.10;13.57;;;10.90;99.90;;;;;;4998655;28;20040;-94
2023/10/24 02:05:55;;;;;;;13.98;12.43;;;10.90;99.90;;;;;;5023824;28;20026;-92
2023/10/24 02:08:23;;;;;;;14.70;13.05;;;10.90;99.90;;;;;;5004199;28;20030;-93
2023/10/24 02:10:51;;;;;;;14.93;13.38;;;10.90;99.90;;;;;;5004774;28;20040;-94
2023/10/24 02:13:21;;;;;;;15.98;14.13;;;11.00;99.90;;;;;;5014319;28;20026;-93
2023/10/24 02:15:47;;;;;;;15.98;14.25;;;10.90;99.90;;;;;;5005737;28;20026;-93
2023/10/24 02:18:13;;;;;;;14.63;13.30;;;11.00;99.90;;;;;;5024012;28;20026;-94
2023/10/24 02:20:45;;;;;;;15.80;14.23;;;11.00;99.90;;;;;;5024280;28;20018;-93
2023/10/24 02:23:13;;;;;;;15.50;13.02;;;11.00;99.90;;;;;;5023449;28;20195;-93
2023/10/24 02:25:39;;;;;;;14.70;13.18;;;11.00;99.90;;;;;;5023578;28;20026;-94
2023/10/24 02:28:05;;;;;;;14.65;12.60;;;11.00;99.90;;;;;;5023553;28;20029;-93
2023/10/24 02:30:49;;;;;;;14.07;12.30;;;10.90;99.90;;;;;;5024012;28;20056;-94
2023/10/24 02:33:18;;;;;;;14.23;12.88;;;11.00;99.90;;;;;;5006095;28;20022;-93
2023/10/24 02:35:44;;;;;;;14.30;12.80;;;11.00;99.90;;;;;;5023906;28;20030;-93
2023/10/24 02:38:10;;;;;;;14.55;12.13;;;11.00;99.90;;;;;;5005452;28;20075;-92
2023/10/24 02:40:37;;;;;;;14.85;13.07;;;11.00;99.90;;;;;;5006154;28;20053;-93
2023/10/24 02:43:02;;;;;;;15.85;13.13;;;11.00;99.90;;;;;;5005975;28;20026;-95
2023/10/24 02:45:28;;;;;;;16.20;14.07;;;11.00;99.90;;;;;;5005853;28;20105;-93
2023/10/24 02:47:54;;;;;;;15.80;14.07;;;11.00;99.90;;;;;;5005563;28;20029;-93
2023/10/24 02:50:23;;;;;;;14.32;12.85;;;11.00;99.90;;;;;;5020756;28;20054;-92
2023/10/24 02:53:06;;;;;;;14.77;13.27;;;11.10;99.90;;;;;;4985650;28;20030;-93
2023/10/24 02:55:35;;;;;;;13.48;12.02;;;11.10;99.90;;;;;;4986420;28;20041;-94
2023/10/24 02:58:01;;;;;;;14.98;13.43;;;11.10;99.90;;;;;;4986430;28;20057;-93
2023/10/24 03:03:32;;;;;;;15.52;13.95;;;11.00;99.90;;;;;;4990651;28;20110;-93
2023/10/24 03:06:11;;;;;;;16.55;14.75;;;11.00;99.90;;;;;;4986625;28;20019;-94
2023/10/24 03:09:08;;;;;;;16.20;14.55;;;11.00;99.90;;;;;;4987857;28;20026;-93
2023/10/24 03:12:09;;;;;;;16.67;14.90;;;11.00;99.90;;;;;;4972181;28;20038;-94
2023/10/24 03:21:53;;;;;;;16.35;14.68;;;11.00;99.90;;;;;;5017558;28;20046;-95
2023/10/24 03:24:26;;;;;;;17.80;13.52;;;11.00;99.90;;;;;;4970205;28;20031;-92
2023/10/24 03:36:34;;;;;;;20.25;15.55;;;11.10;99.90;;;;;;4963649;29;20042;-93
2023/10/24 03:42:21;;;;;;;15.73;14.18;;;11.10;99.90;;;;;;4965210;29;20106;-94
2023/10/24 03:44:51;;;;;;;18.83;15.45;;;11.10;99.90;;;;;;4944889;28;20046;-94
2023/10/24 03:47:27;;;;;;;17.38;15.20;;;11.10;99.90;;;;;;4966167;28;20073;-93
2023/10/24 03:49:58;;;;;;;17.63;14.88;;;11.10;99.90;;;;;;4985388;28;20050;-94
2023/10/24 03:52:24;;;;;;;17.50;15.35;;;11.10;99.90;;;;;;4985985;28;20033;-92
2023/10/24 03:54:57;;;;;;;16.77;15.02;;;11.10;99.90;;;;;;4985497;28;20098;-93
2023/10/24 03:57:41;;;;;;;16.95;13.80;;;11.10;99.90;;;;;;4966972;28;20126;-94
2023/10/24 04:00:11;;;;;;;16.13;14.43;;;11.20;99.90;;;;;;5001701;28;20534;-94
2023/10/24 04:02:37;;;;;;;18.55;16.60;;;11.20;99.90;;;;;;4991902;28;20036;-93
2023/10/24 04:05:06;;;;;;;15.05;13.05;;;11.20;99.90;;;;;;5003984;28;20093;-93
2023/10/24 04:07:32;;;;;;;17.50;15.68;;;11.20;99.90;;;;;;4998425;28;20030;-95
2023/10/24 04:09:58;;;;;;;15.38;13.77;;;11.20;99.90;;;;;;5001299;28;20025;-93
2023/10/24 04:12:28;;;;;;;16.60;14.88;;;11.20;99.90;;;;;;5003734;28;20050;-93
2023/10/24 04:14:55;;;;;;;17.13;13.45;;;11.20;99.90;;;;;;5000579;28;20082;-92
2023/10/24 04:17:21;;;;;;;17.63;14.35;;;11.20;99.90;;;;;;5002635;28;20316;-94
2023/10/24 04:19:46;;;;;;;19.17;16.25;;;11.20;99.90;;;;;;5007734;28;20397;-93
2023/10/24 04:22:15;;;;;;;16.35;14.68;;;11.20;99.90;;;;;;5006660;28;20022;-92
2023/10/24 04:24:46;;;;;;;13.32;11.88;;;11.20;99.90;;;;;;5018037;28;20088;-93
2023/10/24 04:27:12;;;;;;;18.10;14.75;;;11.20;99.90;;;;;;5004486;28;20495;-91
2023/10/24 04:29:38;;;;;;;15.40;13.80;;;11.20;99.90;;;;;;5000664;28;20041;-91
2023/10/24 04:32:04;;;;;;;17.98;14.80;;;11.20;99.90;;;;;;5000627;28;20031;-91
2023/10/24 04:34:33;;;;;;;18.95;16.13;;;11.20;99.90;;;;;;4982828;28;20034;-93
2023/10/24 04:36:59;;;;;;;16.88;15.13;;;11.20;99.90;;;;;;4983418;28;20392;-92
2023/10/24 04:39:29;;;;;;;17.65;15.00;;;11.20;99.90;;;;;;5002933;28;20049;-92
2023/10/24 04:41:54;;;;;;;21.83;15.30;;;11.20;99.90;;;;;;5021227;28;20033;-91
2023/10/24 04:44:27;;;;;;;17.00;15.25;;;11.20;99.90;;;;;;5000730;28;20097;-92
2023/10/24 04:46:53;;;;;;;16.55;14.98;;;11.20;99.90;;;;;;4983239;28;20031;-90
2023/10/24 04:49:19;;;;;;;17.15;15.35;;;11.20;99.90;;;;;;4987781;28;20033;-93
2023/10/24 04:51:46;;;;;;;18.80;15.63;;;11.20;99.90;;;;;;5005943;28;20057;-92
2023/10/24 04:54:17;;;;;;;15.85;14.18;;;11.20;99.90;;;;;;5004551;28;20033;-90
2023/10/24 04:56:43;;;;;;;17.15;15.38;;;11.20;99.90;;;;;;5021816;28;20090;-92
2023/10/24 04:59:08;;;;;;;18.13;14.80;;;11.20;99.90;;;;;;5002942;28;20489;-91
2023/10/24 05:01:37;;;;;;;16.48;14.02;;;11.20;99.90;;;;;;5020885;28;20026;-92
2023/10/24 05:04:06;;;;;;;18.50;15.45;;;11.20;99.90;;;;;;5003243;28;20113;-92
2023/10/24 05:06:33;;;;;;;18.60;15.57;;;11.10;99.90;;;;;;5020133;28;20021;-91
2023/10/24 05:09:02;;;;;;;17.50;14.95;;;11.20;99.90;;;;;;5002446;28;20080;-91
2023/10/24 05:11:27;;;;;;;17.58;15.73;;;11.10;99.90;;;;;;4984808;28;20025;-91
2023/10/24 05:13:53;;;;;;;17.50;15.77;;;11.10;99.90;;;;;;4982559;28;20404;-91
2023/10/24 05:16:21;;;;;;;16.25;14.20;;;11.20;99.90;;;;;;5001729;28;20101;-90
2023/10/24 05:18:47;;;;;;;18.92;14.07;;;11.10;99.90;;;;;;4994921;28;20026;-92
2023/10/24 05:21:13;;;;;;;16.52;12.98;;;11.10;99.90;;;;;;5006580;28;20050;-91
2023/10/24 05:23:38;;;;;;;16.20;14.52;;;11.10;99.90;;;;;;5022249;28;20029;-91
2023/10/24 05:26:04;;;;;;;16.77;14.98;;;11.10;99.90;;;;;;5014672;28;20734;-90
2023/10/24 05:28:32;;;;;;;17.92;15.68;;;11.10;99.90;;;;;;5004217;28;20113;-92
2023/10/24 05:31:07;;;;;;;18.50;15.77;;;11.10;99.90;;;;;;4997870;28;20026;-90
2023/10/24 05:33:35;;;;;;;16.63;14.60;;;11.10;99.90;;;;;;4999208;28;20072;-90
2023/10/24 05:36:04;;;;;;;18.02;15.35;;;11.10;99.90;;;;;;5004780;28;20026;-91
2023/10/24 05:38:29;;;;;;;17.17;15.18;;;11.10;99.90;;;;;;5010156;28;20023;-92
2023/10/24 05:40:55;;;;;;;17.80;15.60;;;11.20;99.90;;;;;;4992714;28;20033;-91
2023/10/24 05:43:21;;;;;;;16.30;14.63;;;11.10;99.90;;;;;;5018743;28;20026;-92
2023/10/24 05:45:47;;;;;;;16.58;14.90;;;11.20;99.90;;;;;;4998086;28;20039;-91
2023/10/24 05:48:12;;;;;;;17.40;14.65;;;11.10;99.90;;;;;;4999134;28;20036;-94
2023/10/24 05:50:39;;;;;;;18.10;16.17;;;11.20;99.90;;;;;;5006411;28;20118;-91
2023/10/24 05:53:04;;;;;;;16.13;13.95;;;11.10;99.90;;;;;;4982632;28;20048;-92
2023/10/24 05:55:30;;;;;;;14.20;12.68;;;11.10;99.90;;;;;;5002106;28;20340;-92
2023/10/24 05:57:56;;;;;;;15.65;13.95;;;11.20;99.90;;;;;;5004350;28;20325;-94
2023/10/24 06:00:22;;;;;;;17.45;14.55;;;11.10;99.90;;;;;;5002488;28;20044;-93
2023/10/24 06:02:48;;;;;;;17.42;14.00;;;11.20;99.90;;;;;;4977106;28;20030;-94
2023/10/24 06:05:14;;;;;;;16.50;14.75;;;11.20;99.90;;;;;;5001400;28;20594;-93
2023/10/24 06:07:39;;;;;;;15.05;13.50;;;11.10;99.90;;;;;;5003064;28;20033;-92
2023/10/24 06:10:06;;;;;;;15.65;13.77;;;11.10;99.90;;;;;;4998148;28;20093;-92
2023/10/24 06:12:32;;;;;;;15.55;13.75;;;11.10;99.90;;;;;;4998103;28;20048;-95
2023/10/24 06:14:58;;;;;;;16.90;13.18;;;11.00;99.90;;;;;;5003762;28;20030;-92
2023/10/24 06:17:24;;;;;;;12.55;10.63;;;11.00;99.90;;;;;;4984185;28;20472;-91
2023/10/24 06:19:51;;;;;;;16.35;14.68;;;11.10;99.90;;;;;;4998641;28;20023;-93
2023/10/24 06:22:17;;;;;;;17.42;14.85;;;11.10;99.90;;;;;;4984420;28;20113;-91
2023/10/24 06:24:43;;;;;;;20.00;14.95;;;11.10;99.90;;;;;;4984782;28;20046;-90
2023/10/24 06:27:10;;;;;;;18.23;16.30;;;11.10;99.90;;;;;;5001201;28;20030;-93
2023/10/24 06:29:36;;;;;;;18.75;15.55;;;11.10;99.90;;;;;;5004277;28;20030;-92
2023/10/24 06:32:02;;;;;;;17.58;14.80;;;11.10;99.90;;;;;;5003037;28;20129;-93
2023/10/24 06:34:28;;;;;;;19.95;15.32;;;11.10;99.90;;;;;;5000348;28;20030;-93
2023/10/24 06:36:53;;;;;;;19.10;15.88;;;11.10;99.90;;;;;;5010426;28;20035;-94
2023/10/24 06:39:19;;;;;;;21.25;15.68;;;11.10;99.90;;;;;;5008700;28;20030;-91
2023/10/24 06:41:45;;;;;;;19.20;16.23;;;11.10;99.90;;;;;;4979133;28;20042;-92
2023/10/24 06:44:11;;;;;;;19.73;15.60;;;11.20;99.90;;;;;;5000952;28;20034;-92
2023/10/24 06:46:37;;;;;;;18.23;15.63;;;11.20;99.90;;;;;;5000423;28;20057;-94
2023/10/24 06:49:02;;;;;;;19.83;17.10;;;11.10;99.90;;;;;;4981455;28;20042;-91
2023/10/24 06:51:28;;;;;;;18.27;15.68;;;11.20;99.90;;;;;;5000017;28;20049;-94
2023/10/24 06:53:54;;;;;;;20.33;16.30;;;11.20;99.90;;;;;;4984542;28;20053;-94
2023/10/24 06:56:23;;;;;;;18.73;15.38;;;11.20;99.90;;;;;;4998927;28;20595;-92
2023/10/24 06:58:48;;;;;;;19.08;15.20;;;11.20;99.90;;;;;;4997019;28;21238;-93
2023/10/24 07:01:14;;;;;;;18.20;14.35;;;11.20;99.90;;;;;;4998501;28;20106;-93
2023/10/24 07:03:40;;;;;;;18.77;14.30;;;11.30;99.90;;;;;;4996071;28;20050;-92
2023/10/24 07:06:06;;;;;;;19.90;16.15;;;11.30;99.90;;;;;;4978066;28;20038;-92
2023/10/24 07:08:32;;;;;;;20.30;16.27;;;11.40;99.90;;;;;;5000990;28;20030;-94
2023/10/24 07:10:58;;;;;;;16.98;15.07;;;11.30;99.90;;;;;;5001255;28;20033;-92
2023/10/24 07:13:24;;;;;;;18.75;16.83;;;11.40;99.90;;;;;;4998212;28;20496;-91
2023/10/24 07:15:52;;;;;;;18.42;13.25;;;11.40;99.90;;;;;;5001087;28;20053;-91
2023/10/24 07:18:18;;;;;;;20.77;15.18;;;11.40;99.90;;;;;;5000496;28;20022;-92
2023/10/24 07:20:44;;;;;;;17.90;16.05;;;11.40;99.90;;;;;;4998188;28;20034;-92
2023/10/24 07:23:09;;;;;;;17.52;14.40;;;11.40;99.90;;;;;;4996325;28;20084;-93
2023/10/24 07:25:35;;;;;;;18.42;14.45;;;11.40;99.90;;;;;;4982529;28;20019;-92
2023/10/24 07:28:02;;;;;;;16.67;14.98;;;11.50;99.90;;;;;;4998396;28;20045;-92
2023/10/24 07:30:30;;;;;;;15.95;13.68;;;11.50;99.90;;;;;;4999213;28;20100;-93
2023/10/24 07:32:56;;;;;;;19.08;14.52;;;11.50;99.90;;;;;;4978493;28;20034;-94
2023/10/24 07:35:22;;;;;;;16.80;14.68;;;11.50;99.90;;;;;;5000104;28;20037;-94
2023/10/24 07:37:48;;;;;;;17.52;14.77;;;11.50;99.90;;;;;;5000657;28;20042;-93
2023/10/24 07:40:15;;;;;;;20.10;16.17;;;11.60;99.90;;;;;;4983905;28;20022;-92
2023/10/24 07:42:41;;;;;;;18.33;15.40;;;11.60;99.90;;;;;;4980167;28;20400;-91
2023/10/24 07:45:07;;;;;;;19.48;14.43;;;11.60;99.90;;;;;;4999244;28;20029;-92
2023/10/24 07:47:33;;;;;;;20.40;16.33;;;11.60;99.90;;;;;;5000890;28;20033;-92
2023/10/24 07:49:59;;;;;;;18.00;16.15;;;11.60;99.90;;;;;;4985447;28;20049;-91
2023/10/24 07:52:25;;;;;;;17.08;15.23;;;11.70;99.90;;;;;;4976849;28;20097;-93
2023/10/24 07:54:50;;;;;;;18.48;15.88;;;11.70;99.90;;;;;;4994640;28;20041;-90
2023/10/24 07:57:16;;;;;;;16.52;14.90;;;11.60;99.90;;;;;;4998176;28;20026;-89
2023/10/24 07:59:42;;;;;;;17.48;13.07;;;11.70;99.90;;;;;;4995990;28;20257;-90
2023/10/24 08:02:07;;;;;;;17.50;15.00;;;11.60;99.90;;;;;;4995107;28;20018;-91
2023/10/24 08:04:34;;;;;;;16.10;12.73;;;11.70;99.90;;;;;;4996220;28;20027;-89
2023/10/24 08:07:01;;;;;;;18.55;16.48;;;11.70;99.90;;;;;;4994225;28;20038;-91
2023/10/24 08:09:26;;;;;;;21.02;15.50;;;11.70;99.90;;;;;;4996708;28;20046;-90
2023/10/24 08:11:52;;;;;;;16.92;15.00;;;11.70;99.90;;;;;;4998943;28;20057;-91
2023/10/24 08:14:18;;;;;;;20.67;14.98;;;11.70;99.90;;;;;;4992903;28;20149;-92
2023/10/24 08:16:43;;;;;;;21.13;15.93;;;11.70;99.90;;;;;;4992925;28;20133;-91
2023/10/24 08:19:09;;;;;;;19.80;15.50;;;11.70;99.90;;;;;;4999898;28;20031;-92
2023/10/24 08:21:35;;;;;;;17.20;13.50;;;11.70;99.90;;;;;;4998050;28;20546;-91
2023/10/24 08:24:00;;;;;;;16.60;14.88;;;11.70;99.90;;;;;;4995656;28;20508;-91
2023/10/24 08:26:26;;;;;;;15.18;13.35;;;11.80;99.90;;;;;;4996081;28;20118;-91
2023/10/24 08:28:52;;;;;;;14.55;13.05;;;11.80;99.90;;;;;;4995347;28;20116;-91
2023/10/24 08:31:18;;;;;;;15.50;12.38;;;11.90;99.90;;;;;;4994598;28;20590;-92
2023/10/24 08:33:43;;;;;;;14.75;13.25;;;11.80;99.90;;;;;;4994320;28;20041;-89
2023/10/24 08:36:10;;;;;;;14.73;13.23;;;11.80;99.90;;;;;;4996985;28;20040;-91
2023/10/24 08:38:36;;;;;;;15.13;13.45;;;11.90;99.90;;;;;;4993811;28;20109;-90
2023/10/24 08:41:03;;;;;;;13.07;11.00;;;11.80;99.90;;;;;;4995423;28;20061;-89
2023/10/24 08:43:29;;;;;;;13.93;12.50;;;11.90;99.90;;;;;;4995041;28;20030;-90
2023/10/24 08:45:55;;;;;;;12.38;11.07;;;11.90;99.90;;;;;;4995315;28;20121;-90
2023/10/24 08:48:21;;;;;;;14.30;11.80;;;11.90;99.90;;;;;;4994314;28;20034;-90
2023/10/24 08:50:47;;;;;;;14.20;11.70;;;11.90;99.90;;;;;;4997776;28;20109;-90
2023/10/24 08:53:14;;;;;;;12.95;11.65;;;11.90;99.90;;;;;;4997271;28;20041;-91
2023/10/24 08:55:54;;;;;;;15.88;12.75;;;11.90;99.90;;;;;;4978209;28;20043;-90
2023/10/24 08:58:20;;;;;;;14.55;11.60;;;11.90;99.90;;;;;;4998740;28;20038;-91
2023/10/24 09:00:47;;;;;;;13.60;11.85;;;11.90;99.90;;;;;;4996735;28;20114;-91
2023/10/24 09:03:15;;;;;;;14.02;12.07;;;12.00;99.90;;;;;;4997103;28;20025;-90
2023/10/24 09:05:45;;;;;;;13.13;11.40;;;12.00;99.90;;;;;;5002393;28;20026;-91
2023/10/24 09:08:12;;;;;;;14.65;11.70;;;12.00;99.90;;;;;;4993117;28;20385;-90
2023/10/24 09:10:38;;;;;;;12.60;10.93;;;12.00;99.90;;;;;;5021606;28;20089;-91
2023/10/24 09:13:05;;;;;;;14.07;12.50;;;12.00;99.90;;;;;;5020565;28;20054;-89
2023/10/24 09:15:34;;;;;;;11.77;10.50;;;12.00;99.90;;;;;;5003779;28;20041;-91
2023/10/24 09:18:02;;;;;;;12.52;10.65;;;12.10;99.90;;;;;;5002774;28;20109;-92
2023/10/24 09:20:37;;;;;;;13.75;11.60;;;12.10;99.90;;;;;;5013332;28;20547;-90
2023/10/24 09:23:07;;;;;;;14.43;13.02;;;12.10;99.90;;;;;;5020286;28;20073;-92
2023/10/24 09:25:33;;;;;;;11.60;9.85;;;12.20;99.90;;;;;;5002507;28;20022;-91
2023/10/24 09:28:15;;;;;;;12.88;11.57;;;12.20;99.90;;;;;;5019615;28;20022;-90
2023/10/24 09:30:41;;;;;;;13.40;11.85;;;12.20;99.90;;;;;;5006327;28;20667;-90
2023/10/24 09:33:07;;;;;;;13.23;10.55;;;12.20;99.90;;;;;;5003902;28;20026;-91
2023/10/24 09:35:35;;;;;;;13.75;12.00;;;12.20;99.90;;;;;;5019758;28;20109;-91
2023/10/24 09:38:01;;;;;;;12.32;11.07;;;12.20;99.90;;;;;;5020290;28;20032;-89
2023/10/24 09:40:39;;;;;;;11.73;10.52;;;12.20;99.90;;;;;;4999887;28;20019;-90
2023/10/24 09:43:22;;;;;;;11.77;10.45;;;12.20;99.90;;;;;;5017709;28;20029;-91
2023/10/24 09:45:51;;;;;;;13.27;11.93;;;12.20;99.90;;;;;;5003750;28;20029;-91
2023/10/24 09:48:17;;;;;;;15.52;12.00;;;12.30;99.90;;;;;;5000259;28;20029;-89
2023/10/24 09:50:43;;;;;;;13.50;12.18;;;12.30;99.90;;;;;;4999413;28;20035;-91
2023/10/24 09:53:10;;;;;;;12.93;11.50;;;12.30;99.90;;;;;;4999368;28;20032;-90
2023/10/24 09:55:41;;;;;;;13.57;12.18;;;12.30;99.90;;;;;;5018420;28;20021;-91
2023/10/24 09:58:09;;;;;;;12.73;9.95;;;12.30;99.90;;;;;;5008505;28;20211;-91
2023/10/24 10:00:35;;;;;;;14.55;12.43;;;12.40;99.90;;;;;;4999288;28;20022;-91
2023/10/24 10:03:03;;;;;;;14.32;11.27;;;12.30;99.90;;;;;;5008232;28;20025;-91
2023/10/24 10:05:29;;;;;;;13.45;12.05;;;12.30;99.90;;;;;;4999952;28;20030;-92
2023/10/24 10:07:57;;;;;;;15.18;13.38;;;12.30;99.90;;;;;;4999386;28;20027;-91
2023/10/24 10:10:27;;;;;;;13.15;11.93;;;12.40;99.90;;;;;;5001634;28;20026;-91
2023/10/24 10:13:00;;;;;;;12.27;11.07;;;12.30;99.90;;;;;;4999893;28;20085;-91
2023/10/24 10:15:49;;;;;;;12.43;10.38;;;12.40;99.90;;;;;;4992916;28;20099;-91
2023/10/24 10:18:42;;;;;;;13.93;11.52;;;12.40;99.90;;;;;;4996966;28;20022;-92
2023/10/24 10:21:31;;;;;;;13.35;10.65;;;12.40;99.90;;;;;;4992681;28;20033;-90
2023/10/24 10:24:31;;;;;;;13.18;11.77;;;12.50;99.90;;;;;;5000081;28;20070;-90
2023/10/24 10:27:17;;;;;;;13.73;12.32;;;12.50;99.90;;;;;;5016594;28;20101;-91
2023/10/24 10:30:14;;;;;;;11.85;10.65;;;12.50;99.90;;;;;;5019035;28;20030;-90
2023/10/24 10:32:51;;;;;;;11.55;10.45;;;12.50;99.90;;;;;;5018875;28;20018;-91
2023/10/24 10:35:19;;;;;;;14.68;11.20;;;12.50;99.90;;;;;;5007585;28;20022;-92
2023/10/24 10:38:03;;;;;;;13.63;11.85;;;12.50;99.90;;;;;;4998398;28;20024;-91
2023/10/24 10:40:29;;;;;;;11.48;10.32;;;12.50;99.90;;;;;;5010757;28;20026;-90
2023/10/24 10:42:55;;;;;;;13.77;12.38;;;12.50;99.90;;;;;;5017545;28;20022;-91
2023/10/24 10:45:31;;;;;;;14.27;12.88;;;12.50;99.90;;;;;;5014056;28;20081;-90
2023/10/24 10:47:59;;;;;;;14.02;12.63;;;12.60;99.90;;;;;;4989358;28;20037;-90
2023/10/24 10:50:37;;;;;;;13.63;12.23;;;12.60;99.90;;;;;;5019656;28;20487;-90
2023/10/24 10:53:29;;;;;;;13.02;11.43;;;12.60;99.90;;;;;;5012702;28;20026;-91
2023/10/24 10:56:16;;;;;;;12.27;10.95;;;12.70;99.90;;;;;;5010268;28;20058;-90
2023/10/24 10:59:03;;;;;;;14.45;11.93;;;12.70;99.90;;;;;;5006236;28;20035;-90
2023/10/24 11:02:09;;;;;;;12.90;11.60;;;12.70;99.90;;;;;;5012733;28;20034;-90
2023/10/24 11:04:35;;;;;;;14.15;11.48;;;12.80;99.90;;;;;;4992306;28;20118;-91
2023/10/24 11:07:03;;;;;;;14.05;12.18;;;12.80;99.90;;;;;;4999894;28;20021;-91
2023/10/24 11:09:36;;;;;;;;;;;12.80;99.90;;;;;;5001125;28;20077;-91
2023/10/24 11:12:20;;;;;;;13.73;11.90;;;12.80;99.90;;;;;;5006788;28;19960;-90
2023/10/24 11:15:12;;;;;;;14.30;12.10;;;12.90;99.90;;;;;;4994703;28;20022;-90
2023/10/24 11:17:37;;;;;;;14.80;11.50;;;12.80;99.90;;;;;;5012876;28;20077;-91
2023/10/24 11:20:10;;;;;;;13.77;12.23;;;12.90;99.90;;;;;;4998646;28;20018;-91
2023/10/24 11:22:37;;;;;;;13.30;10.32;;;13.00;99.90;;;;;;4998387;28;20034;-91
2023/10/24 11:25:13;;;;;;;12.60;11.32;;;13.00;99.90;;;;;;4998801;28;20033;-91
2023/10/24 11:27:41;;;;;;;11.95;10.73;;;13.00;99.90;;;;;;5002504;28;20026;-89
2023/10/24 11:30:07;;;;;;;13.95;12.40;;;13.00;99.90;;;;;;5016388;28;20025;-91
2023/10/24 11:32:34;;;;;;;12.65;11.23;;;13.00;99.90;;;;;;5013567;28;20022;-91
2023/10/24 11:35:01;;;;;;;12.82;11.40;;;13.00;99.90;;;;;;4998233;28;20058;-90
2023/10/24 11:37:48;;;;;;;11.55;8.45;;;13.10;99.90;;;;;;5121542;27;20469;-90
2023/10/24 11:40:15;;;;;;;13.02;9.48;;;13.00;99.90;;;;;;5095483;28;20024;-92
2023/10/24 11:42:40;;;;;;;13.65;9.73;;;13.00;99.90;;;;;;5089719;28;20028;-91
2023/10/24 11:45:06;;;;;;;10.70;8.30;;;13.10;99.90;;;;;;5087930;28;20032;-92
2023/10/24 11:47:32;;;;;;;8.82;7.32;;;13.20;99.90;;;;;;5074967;28;20032;-91
2023/10/24 11:49:58;;;;;;;11.35;8.65;;;13.20;99.90;;;;;;5065302;28;20028;-92
2023/10/24 11:52:24;;;;;;;8.98;8.05;;;13.20;99.90;;;;;;5083316;28;20044;-92
2023/10/24 11:54:53;;;;;;;11.23;7.50;;;13.30;99.90;;;;;;5092037;28;20042;-93
2023/10/24 11:57:25;;;;;;;9.30;7.60;;;13.40;99.90;;;;;;5069942;28;20032;-92
2023/10/24 11:59:51;;;;;;;10.18;8.90;;;13.30;99.90;;;;;;5084189;28;20112;-91
2023/10/24 12:02:19;;;;;;;10.13;8.43;;;13.30;99.90;;;;;;5088498;28;20052;-91
2023/10/24 12:04:50;;;;;;;9.43;8.32;;;13.40;99.90;;;;;;5094749;28;20024;-91
2023/10/24 12:07:16;;;;;;;10.27;8.05;;;13.50;99.90;;;;;;5077654;28;20032;-90
2023/10/24 12:09:42;;;;;;;10.38;7.82;;;13.50;99.90;;;;;;5093138;28;20028;-92
2023/10/24 12:12:10;;;;;;;10.13;7.88;;;13.50;99.90;;;;;;5095449;28;20027;-92
2023/10/24 12:14:41;;;;;;;10.45;7.25;;;13.60;99.90;;;;;;5089317;28;20033;-91
2023/10/24 12:17:08;;;;;;;11.88;7.60;;;13.50;99.90;;;;;;5075250;28;20035;-91
2023/10/24 12:19:34;;;;;;;13.52;8.63;;;13.50;99.90;;;;;;5070895;28;20029;-92
2023/10/24 12:22:03;;;;;;;9.82;7.15;;;13.50;99.90;;;;;;5088375;28;20028;-91
2023/10/24 12:24:29;;;;;;;11.10;7.05;;;13.60;99.90;;;;;;5097952;28;20486;-92
2023/10/24 12:26:55;;;;;;;6.97;4.72;;;13.60;99.90;;;;;;5095943;28;20055;-92
2023/10/24 12:29:21;;;;;;;6.95;5.18;;;13.60;99.90;;;;;;5076199;28;20055;-93
2023/10/24 12:31:46;;;;;;;9.23;5.13;;;13.70;99.90;;;;;;5066562;28;20058;-92
2023/10/24 12:34:15;;;;;;;6.95;5.35;;;13.70;99.90;;;;;;5104292;28;20110;-92
2023/10/24 12:36:41;;;;;;;6.63;5.30;;;13.70;99.90;;;;;;5074546;28;20036;-92
2023/10/24 12:39:07;;;;;;;4.90;4.40;;;13.80;99.90;;;;;;5068316;28;20029;-91
2023/10/24 12:41:33;;;;;;;4.75;4.35;;;13.80;99.90;;;;;;5096076;28;20020;-93
2023/10/24 12:44:07;;;;;;;6.20;4.00;;;13.80;99.90;;;;;;5096321;28;20090;-91
2023/10/24 12:46:33;;;;;;;4.47;3.80;;;13.80;99.90;;;;;;5069493;28;20028;-91
2023/10/24 12:48:59;;;;;;;4.93;4.20;;;13.80;99.90;;;;;;5049724;28;20047;-92
2023/10/24 12:51:25;;;;;;;4.55;3.25;;;13.80;99.90;;;;;;5068199;28;20025;-92
2023/10/24 12:53:50;;;;;;;3.88;2.95;;;13.80;99.90;;;;;;5082130;28;20040;-92
2023/10/24 12:56:17;;;;;;;5.93;3.47;;;13.80;99.90;;;;;;5090158;28;20036;-91
2023/10/24 12:58:45;;;;;;;4.15;3.17;;;13.80;99.90;;;;;;5078128;28;20029;-91